Time;durP1;ratioP1;P1;durP2;ratioP2;P2;SDS_P1;SDS_P2;PMS_P1;PMS_P2;Temp;Humidity;BMP_temperature;BMP_pressure;BME280_temperature;BME280_humidity;BME280_pressure;Samples;Min_cycle;Max_cycle;Signal;HPM_P1;HPM_P2
2021/03/10 00:01:39;;;;;;;4.00;3.60;;;;;;;;;;5022790;28;20231;-53
2021/03/10 00:04:05;;;;;;;3.88;3.47;;;;;;;;;;5015143;28;20449;-53
2021/03/10 00:06:31;;;;;;;3.58;3.28;;;;;;;;;;5024081;28;20176;-53
2021/03/10 00:08:57;;;;;;;3.70;3.03;;;;;;;;;;5015514;28;20199;-53
2021/03/10 00:11:23;;;;;;;4.70;3.70;;;;;;;;;;5026429;28;20572;-53
2021/03/10 00:13:49;;;;;;;4.47;3.67;;;;;;;;;;5034998;28;20210;-53
2021/03/10 00:16:15;;;;;;;4.97;3.30;;;;;;;;;;5025354;28;20250;-53
2021/03/10 00:18:41;;;;;;;4.60;3.47;;;;;;;;;;5018722;28;20283;-53
2021/03/10 00:21:07;;;;;;;4.30;3.47;;;;;;;;;;5021834;28;20568;-53
2021/03/10 00:23:33;;;;;;;4.00;3.30;;;;;;;;;;5015402;28;20184;-53
2021/03/10 00:25:59;;;;;;;5.05;3.25;;;;;;;;;;5019171;28;20254;-53
2021/03/10 00:28:25;;;;;;;4.95;3.60;;;;;;;;;;5017076;28;20202;-53
2021/03/10 00:30:51;;;;;;;4.10;3.60;;;;;;;;;;5014749;28;20192;-53
2021/03/10 00:33:17;;;;;;;3.63;3.33;;;;;;;;;;5015372;28;20216;-53
2021/03/10 00:35:43;;;;;;;3.20;2.90;;;;;;;;;;5025403;28;20200;-53
2021/03/10 00:38:09;;;;;;;3.67;3.28;;;;;;;;;;5015392;28;20262;-53
2021/03/10 00:40:35;;;;;;;4.00;3.22;;;;;;;;;;5020090;28;20182;-53
2021/03/10 00:43:01;;;;;;;4.70;3.42;;;;;;;;;;5034976;28;20481;-53
2021/03/10 00:45:27;;;;;;;4.28;3.35;;;;;;;;;;5031426;28;20184;-53
2021/03/10 00:47:57;;;;;;;4.82;3.38;;;;;;;;;;5015280;28;20184;-53
2021/03/10 00:50:23;;;;;;;3.00;2.80;;;;;;;;;;5023621;28;20206;-53
2021/03/10 00:52:49;;;;;;;4.00;3.60;;;;;;;;;;5032249;28;20219;-53
2021/03/10 00:55:16;;;;;;;3.35;3.00;;;;;;;;;;5022018;28;20168;-53
2021/03/10 00:57:43;;;;;;;4.05;2.85;;;;;;;;;;5033053;28;20225;-53
2021/03/10 01:00:09;;;;;;;3.53;3.03;;;;;;;;;;5022789;28;20194;-53
2021/03/10 01:02:35;;;;;;;4.05;3.00;;;;;;;;;;5034488;28;20455;-53
2021/03/10 01:05:01;;;;;;;3.47;3.17;;;;;;;;;;5023957;28;20187;-53
2021/03/10 01:07:27;;;;;;;3.58;2.90;;;;;;;;;;5018506;28;20319;-53
2021/03/10 01:09:53;;;;;;;3.70;3.10;;;;;;;;;;5016042;28;20188;-53
2021/03/10 01:12:19;;;;;;;3.30;3.00;;;;;;;;;;5014569;28;20204;-53
2021/03/10 01:14:45;;;;;;;3.92;3.20;;;;;;;;;;5015325;28;20216;-53
2021/03/10 01:17:12;;;;;;;3.10;2.80;;;;;;;;;;5016150;28;20232;-53
2021/03/10 01:19:38;;;;;;;3.33;3.03;;;;;;;;;;5024018;28;20761;-53
2021/03/10 01:22:03;;;;;;;4.13;3.38;;;;;;;;;;5021169;28;20259;-53
2021/03/10 01:24:29;;;;;;;3.30;2.90;;;;;;;;;;5032045;28;20482;-53
2021/03/10 01:26:55;;;;;;;3.47;3.17;;;;;;;;;;5033015;28;20207;-53
2021/03/10 01:29:21;;;;;;;3.53;3.10;;;;;;;;;;5031955;28;20610;-53
2021/03/10 01:31:48;;;;;;;2.92;2.65;;;;;;;;;;5024579;28;20267;-53
2021/03/10 01:34:14;;;;;;;3.85;3.00;;;;;;;;;;5033150;28;20270;-53
2021/03/10 01:36:40;;;;;;;3.03;2.72;;;;;;;;;;5026748;28;20262;-53
2021/03/10 01:39:06;;;;;;;2.70;2.50;;;;;;;;;;5020783;28;20263;-53
2021/03/10 01:41:32;;;;;;;2.95;2.75;;;;;;;;;;5020586;28;20416;-53
2021/03/10 01:43:58;;;;;;;3.20;2.90;;;;;;;;;;5018038;28;20183;-53
2021/03/10 01:46:29;;;;;;;3.50;2.88;;;;;;;;;;5018660;28;20192;-52
2021/03/10 01:48:55;;;;;;;2.85;2.65;;;;;;;;;;5019249;28;20189;-52
2021/03/10 01:51:21;;;;;;;2.90;2.70;;;;;;;;;;5018434;28;20222;-52
2021/03/10 01:53:47;;;;;;;3.00;2.80;;;;;;;;;;5018068;28;20189;-52
2021/03/10 01:56:16;;;;;;;3.47;2.90;;;;;;;;;;5019826;28;20179;-52
2021/03/10 01:58:42;;;;;;;3.00;2.75;;;;;;;;;;5026318;28;20192;-52
2021/03/10 02:01:08;;;;;;;3.47;2.78;;;;;;;;;;5034296;28;20196;-52
2021/03/10 02:03:34;;;;;;;4.20;2.90;;;;;;;;;;5037783;28;20242;-52
2021/03/10 02:06:01;;;;;;;3.30;3.00;;;;;;;;;;5027635;28;20192;-52
2021/03/10 02:08:30;;;;;;;3.05;2.80;;;;;;;;;;5026981;28;20255;-52
2021/03/10 02:11:05;;;;;;;2.90;2.70;;;;;;;;;;5031974;28;20207;-52
2021/03/10 02:13:50;;;;;;;2.85;2.65;;;;;;;;;;5037764;28;20752;-52
2021/03/10 02:16:27;;;;;;;2.83;2.60;;;;;;;;;;5032261;28;20187;-52
2021/03/10 02:19:02;;;;;;;2.65;2.42;;;;;;;;;;5031784;28;20290;-52
2021/03/10 02:21:35;;;;;;;2.90;2.70;;;;;;;;;;5029779;28;20599;-52
2021/03/10 02:24:11;;;;;;;2.80;2.60;;;;;;;;;;5030530;28;20207;-52
2021/03/10 02:26:40;;;;;;;2.60;2.40;;;;;;;;;;5021675;28;20755;-52
2021/03/10 02:29:11;;;;;;;2.92;2.60;;;;;;;;;;5017661;28;20706;-52
2021/03/10 02:31:40;;;;;;;2.72;2.50;;;;;;;;;;5018645;28;20267;-52
2021/03/10 02:34:06;;;;;;;2.65;2.45;;;;;;;;;;5018252;28;20537;-52
2021/03/10 02:36:33;;;;;;;2.80;2.60;;;;;;;;;;5020104;28;20438;-52
2021/03/10 02:39:00;;;;;;;2.60;2.35;;;;;;;;;;5018787;28;20208;-52
2021/03/10 02:41:29;;;;;;;3.10;2.70;;;;;;;;;;5032026;28;20187;-53
2021/03/10 02:43:55;;;;;;;2.90;2.70;;;;;;;;;;5035172;28;20589;-53
2021/03/10 02:46:21;;;;;;;2.67;2.47;;;;;;;;;;5025845;28;20501;-53
2021/03/10 02:48:47;;;;;;;2.70;2.30;;;;;;;;;;5024191;28;20206;-53
2021/03/10 02:51:16;;;;;;;2.35;2.15;;;;;;;;;;5032507;28;20251;-53
2021/03/10 02:53:42;;;;;;;2.63;2.42;;;;;;;;;;5033289;28;20530;-53
2021/03/10 02:56:10;;;;;;;4.15;2.40;;;;;;;;;;5028282;28;20188;-52
2021/03/10 02:58:36;;;;;;;2.90;2.58;;;;;;;;;;5016781;28;20208;-52
2021/03/10 03:01:02;;;;;;;2.60;2.40;;;;;;;;;;5018207;28;20200;-52
2021/03/10 03:03:28;;;;;;;2.80;2.60;;;;;;;;;;5017802;28;20817;-53
2021/03/10 03:05:54;;;;;;;2.55;2.35;;;;;;;;;;5017426;28;20196;-53
2021/03/10 03:08:20;;;;;;;2.70;2.50;;;;;;;;;;5021446;28;20188;-53
2021/03/10 03:10:46;;;;;;;3.20;2.90;;;;;;;;;;5022594;28;20192;-52
2021/03/10 03:13:14;;;;;;;2.70;2.50;;;;;;;;;;5031208;28;20234;-53
2021/03/10 03:15:41;;;;;;;2.50;2.30;;;;;;;;;;5034547;28;20188;-53
2021/03/10 03:18:08;;;;;;;2.65;2.40;;;;;;;;;;5016194;28;20211;-52
2021/03/10 03:20:34;;;;;;;2.70;2.50;;;;;;;;;;5024524;28;20199;-52
2021/03/10 03:23:03;;;;;;;2.30;2.10;;;;;;;;;;5022879;28;20180;-52
2021/03/10 03:25:31;;;;;;;2.80;2.53;;;;;;;;;;5028780;28;20185;-52
2021/03/10 03:27:59;;;;;;;2.60;2.40;;;;;;;;;;5016462;28;20188;-52
2021/03/10 03:30:26;;;;;;;2.60;2.40;;;;;;;;;;5027317;28;20221;-52
2021/03/10 03:32:56;;;;;;;2.80;2.60;;;;;;;;;;5021683;28;20547;-52
2021/03/10 03:35:23;;;;;;;2.38;2.17;;;;;;;;;;5035353;28;20549;-52
2021/03/10 03:37:51;;;;;;;2.58;2.38;;;;;;;;;;5028714;28;20211;-52
2021/03/10 03:40:18;;;;;;;2.38;2.17;;;;;;;;;;5033718;28;20190;-52
2021/03/10 03:42:44;;;;;;;2.58;2.38;;;;;;;;;;5035675;28;20274;-52
2021/03/10 03:45:11;;;;;;;2.70;2.50;;;;;;;;;;5035290;28;20198;-52
2021/03/10 03:47:38;;;;;;;2.35;2.15;;;;;;;;;;5032932;28;20306;-52
2021/03/10 03:50:05;;;;;;;2.25;2.05;;;;;;;;;;5023152;28;20188;-52
2021/03/10 03:52:31;;;;;;;2.33;2.15;;;;;;;;;;5022208;28;20316;-51
2021/03/10 03:54:57;;;;;;;2.20;2.10;;;;;;;;;;5016564;28;20587;-51
2021/03/10 03:57:23;;;;;;;2.17;2.05;;;;;;;;;;5023535;28;20189;-51
2021/03/10 03:59:49;;;;;;;2.03;1.92;;;;;;;;;;5022776;28;20474;-51
2021/03/10 04:02:15;;;;;;;2.40;2.20;;;;;;;;;;5034842;28;20222;-51
2021/03/10 04:04:41;;;;;;;2.55;2.35;;;;;;;;;;5023997;28;20306;-51
2021/03/10 04:07:07;;;;;;;2.28;2.10;;;;;;;;;;5026168;28;20588;-51
2021/03/10 04:09:33;;;;;;;2.45;2.15;;;;;;;;;;5034061;28;20220;-51
2021/03/10 04:11:59;;;;;;;2.10;2.00;;;;;;;;;;5022572;28;20220;-51
2021/03/10 04:14:25;;;;;;;3.03;2.45;;;;;;;;;;5015089;28;20204;-51
2021/03/10 04:16:51;;;;;;;2.65;2.45;;;;;;;;;;5015913;28;20220;-51
2021/03/10 04:19:16;;;;;;;2.65;2.45;;;;;;;;;;5019275;28;20204;-51
2021/03/10 04:21:42;;;;;;;2.15;2.05;;;;;;;;;;5026412;28;20454;-51
2021/03/10 04:24:09;;;;;;;2.22;2.10;;;;;;;;;;5018433;28;20200;-51
2021/03/10 04:26:35;;;;;;;2.05;1.95;;;;;;;;;;5030615;28;20184;-51
2021/03/10 04:29:01;;;;;;;2.05;1.95;;;;;;;;;;5035016;28;20231;-51
2021/03/10 04:31:27;;;;;;;2.55;2.08;;;;;;;;;;5028440;28;20188;-51
2021/03/10 04:33:52;;;;;;;2.38;2.17;;;;;;;;;;5019796;28;20192;-51
2021/03/10 04:36:18;;;;;;;2.30;2.10;;;;;;;;;;5021744;28;20180;-51
2021/03/10 04:38:44;;;;;;;2.50;2.30;;;;;;;;;;5033232;28;20219;-51
2021/03/10 04:41:11;;;;;;;2.42;2.22;;;;;;;;;;5029990;28;20237;-51
2021/03/10 04:43:36;;;;;;;2.35;2.15;;;;;;;;;;5034336;28;20225;-51
2021/03/10 04:46:02;;;;;;;2.40;2.20;;;;;;;;;;5027641;28;20192;-51
2021/03/10 04:48:28;;;;;;;2.50;2.30;;;;;;;;;;5026011;28;20490;-51
2021/03/10 04:50:54;;;;;;;3.00;2.42;;;;;;;;;;5028731;28;20188;-51
2021/03/10 04:53:20;;;;;;;2.30;2.10;;;;;;;;;;5027477;28;20245;-51
2021/03/10 04:55:46;;;;;;;2.53;2.33;;;;;;;;;;5029987;28;20274;-51
2021/03/10 04:58:12;;;;;;;2.25;2.08;;;;;;;;;;5033877;28;20218;-50
2021/03/10 05:00:39;;;;;;;2.20;2.00;;;;;;;;;;5032201;28;20291;-50
2021/03/10 05:03:05;;;;;;;2.20;1.98;;;;;;;;;;5034024;28;20194;-50
2021/03/10 05:05:31;;;;;;;2.47;2.28;;;;;;;;;;5031317;28;20188;-50
2021/03/10 05:07:57;;;;;;;2.22;2.03;;;;;;;;;;5016164;28;20195;-50
2021/03/10 05:10:23;;;;;;;2.10;2.00;;;;;;;;;;5031495;28;20176;-50
2021/03/10 05:12:49;;;;;;;2.15;2.03;;;;;;;;;;5014033;28;20203;-50
2021/03/10 05:15:15;;;;;;;2.15;2.00;;;;;;;;;;5014271;28;20187;-50
2021/03/10 05:17:41;;;;;;;2.33;2.13;;;;;;;;;;5028417;28;20219;-51
2021/03/10 05:20:09;;;;;;;2.03;1.90;;;;;;;;;;5023467;28;20594;-51
2021/03/10 05:22:35;;;;;;;2.08;1.90;;;;;;;;;;5017732;28;20187;-51
2021/03/10 05:25:01;;;;;;;2.45;2.25;;;;;;;;;;5028314;28;20184;-51
2021/03/10 05:27:31;;;;;;;2.30;2.10;;;;;;;;;;5022394;28;20176;-51
2021/03/10 05:29:57;;;;;;;2.45;2.25;;;;;;;;;;5014398;28;20218;-51
2021/03/10 05:32:23;;;;;;;2.33;2.17;;;;;;;;;;5025210;28;20444;-50
2021/03/10 05:34:49;;;;;;;2.22;2.03;;;;;;;;;;5032957;28;20574;-50
2021/03/10 05:37:15;;;;;;;2.15;2.05;;;;;;;;;;5018553;28;20215;-50
2021/03/10 05:39:41;;;;;;;2.25;2.10;;;;;;;;;;5023981;28;20215;-51
2021/03/10 05:42:07;;;;;;;2.53;2.20;;;;;;;;;;5025459;28;20176;-51
2021/03/10 05:44:33;;;;;;;2.40;2.20;;;;;;;;;;5033495;28;20172;-51
2021/03/10 05:46:59;;;;;;;2.33;2.13;;;;;;;;;;5026504;28;20187;-51
2021/03/10 05:49:26;;;;;;;3.25;2.25;;;;;;;;;;5029391;28;20255;-51
2021/03/10 05:51:52;;;;;;;2.10;1.90;;;;;;;;;;5017410;28;20275;-51
2021/03/10 05:54:21;;;;;;;2.25;2.05;;;;;;;;;;5033208;28;20176;-51
2021/03/10 05:56:48;;;;;;;2.10;1.90;;;;;;;;;;5018178;28;20196;-51
2021/03/10 05:59:14;;;;;;;2.38;2.17;;;;;;;;;;5025035;28;20200;-49
2021/03/10 06:01:40;;;;;;;3.92;2.00;;;;;;;;;;5022954;28;20211;-50
2021/03/10 06:04:07;;;;;;;2.53;1.88;;;;;;;;;;5013655;28;20549;-50
2021/03/10 06:06:35;;;;;;;2.47;2.28;;;;;;;;;;5023566;28;20215;-50
2021/03/10 06:09:11;;;;;;;4.82;2.20;;;;;;;;;;5019130;28;20192;-50
2021/03/10 06:11:37;;;;;;;2.60;2.00;;;;;;;;;;5027626;28;20213;-49
2021/03/10 06:14:06;;;;;;;2.33;1.88;;;;;;;;;;5013870;28;20187;-50
2021/03/10 06:16:33;;;;;;;2.30;2.10;;;;;;;;;;5024404;28;20267;-51
2021/03/10 06:19:03;;;;;;;4.10;2.20;;;;;;;;;;5018503;28;20587;-50
2021/03/10 06:21:29;;;;;;;2.38;2.17;;;;;;;;;;5031782;28;20238;-50
2021/03/10 06:24:05;;;;;;;2.08;1.98;;;;;;;;;;5021265;28;20185;-49
2021/03/10 06:26:32;;;;;;;2.88;1.98;;;;;;;;;;5028151;28;20209;-49
2021/03/10 06:29:00;;;;;;;2.42;2.22;;;;;;;;;;5030331;28;20570;-50
2021/03/10 06:31:34;;;;;;;3.78;2.35;;;;;;;;;;5017770;28;20180;-50
2021/03/10 06:34:17;;;;;;;2.20;1.98;;;;;;;;;;5025809;28;20274;-50
2021/03/10 06:36:44;;;;;;;3.67;2.03;;;;;;;;;;5036583;28;20180;-50
2021/03/10 06:39:13;;;;;;;1.80;1.67;;;;;;;;;;5021002;28;20235;-50
2021/03/10 06:41:41;;;;;;;2.17;1.98;;;;;;;;;;5029225;28;20272;-51
2021/03/10 06:44:14;;;;;;;5.10;1.90;;;;;;;;;;5018678;28;20594;-48
2021/03/10 06:46:51;;;;;;;2.78;2.40;;;;;;;;;;5022107;28;20219;-49
2021/03/10 06:49:17;;;;;;;3.20;2.00;;;;;;;;;;5029906;28;20227;-48
2021/03/10 06:51:56;;;;;;;3.45;2.05;;;;;;;;;;5036828;28;20183;-48
2021/03/10 06:54:23;;;;;;;3.25;2.30;;;;;;;;;;5036111;28;20211;-49
2021/03/10 06:57:04;;;;;;;2.10;2.00;;;;;;;;;;5020609;28;20199;-49
2021/03/10 06:59:43;;;;;;;4.10;2.08;;;;;;;;;;5021451;28;20211;-49
2021/03/10 07:02:13;;;;;;;4.97;2.38;;;;;;;;;;5032564;28;20199;-48
2021/03/10 07:04:40;;;;;;;3.17;2.05;;;;;;;;;;5036037;28;20593;-49
2021/03/10 07:07:08;;;;;;;3.35;2.35;;;;;;;;;;5028844;28;20214;-54
2021/03/10 07:09:35;;;;;;;4.30;2.05;;;;;;;;;;5019093;28;20223;-49
2021/03/10 07:12:01;;;;;;;2.85;1.92;;;;;;;;;;5024260;28;20253;-54
2021/03/10 07:14:28;;;;;;;2.92;2.08;;;;;;;;;;5035923;28;20449;-56
2021/03/10 07:16:55;;;;;;;2.72;2.25;;;;;;;;;;5029344;28;20195;-49
2021/03/10 07:19:22;;;;;;;3.00;2.58;;;;;;;;;;5022104;28;20204;-52
2021/03/10 07:21:51;;;;;;;2.72;1.98;;;;;;;;;;5035817;28;20179;-51
2021/03/10 07:24:22;;;;;;;8.30;2.30;;;;;;;;;;5016779;28;20180;-50
2021/03/10 07:26:49;;;;;;;2.60;2.40;;;;;;;;;;5029553;28;20219;-50
2021/03/10 07:29:16;;;;;;;3.92;2.42;;;;;;;;;;5035604;28;20245;-58
2021/03/10 07:31:43;;;;;;;4.50;2.60;;;;;;;;;;5034612;28;20191;-52
2021/03/10 07:34:09;;;;;;;2.63;2.40;;;;;;;;;;5026019;28;20444;-52
2021/03/10 07:36:37;;;;;;;2.80;2.58;;;;;;;;;;5027184;28;20590;-49
2021/03/10 07:39:04;;;;;;;3.25;2.60;;;;;;;;;;5026037;28;20227;-54
2021/03/10 07:41:34;;;;;;;3.78;2.60;;;;;;;;;;5019601;28;20215;-51
2021/03/10 07:44:01;;;;;;;4.35;2.40;;;;;;;;;;5030152;28;20188;-49
2021/03/10 07:46:31;;;;;;;3.53;1.92;;;;;;;;;;5034718;28;20210;-52
2021/03/10 07:48:58;;;;;;;3.08;2.28;;;;;;;;;;5035353;28;20187;-51
2021/03/10 07:51:32;;;;;;;3.08;2.50;;;;;;;;;;5035534;28;20207;-62
2021/03/10 07:53:59;;;;;;;2.90;2.20;;;;;;;;;;5035219;28;20179;-51
2021/03/10 07:56:31;;;;;;;3.42;2.45;;;;;;;;;;5035426;28;20187;-52
2021/03/10 07:59:13;;;;;;;3.20;2.58;;;;;;;;;;5028563;28;20262;-52
2021/03/10 08:01:39;;;;;;;3.88;2.88;;;;;;;;;;5027517;28;20200;-51
2021/03/10 08:04:15;;;;;;;6.88;3.10;;;;;;;;;;5034883;28;20179;-51
2021/03/10 08:06:42;;;;;;;3.90;2.80;;;;;;;;;;5035146;28;20217;-51
2021/03/10 08:09:08;;;;;;;5.03;2.83;;;;;;;;;;5034915;28;20188;-51
2021/03/10 08:11:42;;;;;;;4.97;2.80;;;;;;;;;;5020165;28;20199;-49
2021/03/10 08:14:08;;;;;;;3.25;2.63;;;;;;;;;;5018322;28;20188;-53
2021/03/10 08:16:41;;;;;;;4.38;2.83;;;;;;;;;;5025496;28;20180;-49
2021/03/10 08:19:07;;;;;;;6.28;3.05;;;;;;;;;;5026131;28;20318;-54
2021/03/10 08:21:34;;;;;;;6.30;3.00;;;;;;;;;;5023642;28;20208;-50
2021/03/10 08:24:00;;;;;;;5.20;2.90;;;;;;;;;;5027499;28;20184;-54
2021/03/10 08:26:26;;;;;;;4.15;2.85;;;;;;;;;;5034815;28;20175;-58
2021/03/10 08:28:52;;;;;;;4.10;2.75;;;;;;;;;;5031859;28;20193;-50
2021/03/10 08:31:18;;;;;;;4.75;3.22;;;;;;;;;;5017968;28;20279;-50
2021/03/10 08:33:45;;;;;;;3.10;2.50;;;;;;;;;;5027995;28;20333;-49
2021/03/10 08:36:11;;;;;;;6.90;2.97;;;;;;;;;;5026091;28;20188;-50
2021/03/10 08:38:37;;;;;;;6.05;2.50;;;;;;;;;;5018629;28;20610;-49
2021/03/10 08:41:07;;;;;;;8.02;3.13;;;;;;;;;;5028853;28;20183;-50
2021/03/10 08:43:33;;;;;;;4.53;2.70;;;;;;;;;;5015039;28;20424;-52
2021/03/10 08:45:59;;;;;;;4.78;2.88;;;;;;;;;;5027537;28;20187;-61
2021/03/10 08:48:31;;;;;;;4.28;2.60;;;;;;;;;;5033257;28;20454;-52
2021/03/10 08:50:59;;;;;;;3.38;2.65;;;;;;;;;;5014294;28;20191;-51
2021/03/10 08:53:25;;;;;;;3.60;2.72;;;;;;;;;;5022830;28;20228;-50
2021/03/10 08:55:51;;;;;;;3.88;2.85;;;;;;;;;;5022038;28;20212;-50
2021/03/10 08:58:18;;;;;;;3.97;2.65;;;;;;;;;;5023463;28;20716;-53
2021/03/10 09:00:45;;;;;;;6.93;2.83;;;;;;;;;;5021852;28;20331;-51
2021/03/10 09:03:15;;;;;;;6.18;2.58;;;;;;;;;;5018513;28;20180;-52
2021/03/10 09:05:42;;;;;;;4.85;2.60;;;;;;;;;;5019959;28;20191;-54
2021/03/10 09:08:09;;;;;;;4.20;3.00;;;;;;;;;;5024271;28;20231;-49
2021/03/10 09:10:36;;;;;;;3.92;2.65;;;;;;;;;;5014440;28;20188;-51
2021/03/10 09:13:02;;;;;;;5.20;2.58;;;;;;;;;;5032197;28;20195;-54
2021/03/10 09:15:29;;;;;;;4.15;2.70;;;;;;;;;;5032097;28;20270;-50
2021/03/10 09:18:01;;;;;;;3.70;2.58;;;;;;;;;;5032724;28;20172;-50
2021/03/10 09:20:32;;;;;;;4.75;2.63;;;;;;;;;;5019618;28;20184;-52
2021/03/10 09:22:58;;;;;;;3.60;2.22;;;;;;;;;;5013017;28;20633;-50
2021/03/10 09:25:26;;;;;;;3.80;2.67;;;;;;;;;;5028250;28;20175;-54
2021/03/10 09:28:11;;;;;;;4.90;2.53;;;;;;;;;;5033420;28;20188;-52
2021/03/10 09:30:41;;;;;;;4.22;2.60;;;;;;;;;;5033835;28;20203;-50
2021/03/10 09:33:17;;;;;;;4.05;2.80;;;;;;;;;;5034155;28;20182;-50
2021/03/10 09:35:43;;;;;;;4.70;3.03;;;;;;;;;;5017003;28;20194;-51
2021/03/10 09:38:10;;;;;;;7.10;2.70;;;;;;;;;;5033834;28;20179;-49
2021/03/10 09:40:36;;;;;;;4.65;2.08;;;;;;;;;;5033947;28;20633;-50
2021/03/10 09:43:21;;;;;;;4.80;2.50;;;;;;;;;;5026116;28;20180;-50
2021/03/10 09:45:49;;;;;;;3.35;2.55;;;;;;;;;;5013289;28;20180;-51
2021/03/10 09:48:18;;;;;;;4.63;2.47;;;;;;;;;;5014267;28;20235;-52
2021/03/10 09:50:48;;;;;;;3.60;2.50;;;;;;;;;;5014291;28;20452;-52
2021/03/10 09:53:16;;;;;;;4.57;2.78;;;;;;;;;;5021351;28;20192;-52
2021/03/10 09:55:42;;;;;;;4.15;2.05;;;;;;;;;;5013449;28;20185;-53
2021/03/10 09:58:09;;;;;;;3.78;2.30;;;;;;;;;;5014685;28;20828;-52
2021/03/10 10:00:36;;;;;;;4.30;2.22;;;;;;;;;;5017989;28;20176;-52
2021/03/10 10:03:02;;;;;;;4.63;2.22;;;;;;;;;;5017900;28;20259;-52
2021/03/10 10:05:34;;;;;;;6.63;2.58;;;;;;;;;;5024715;28;20196;-52
2021/03/10 10:08:01;;;;;;;7.65;2.65;;;;;;;;;;5023957;28;20179;-52
2021/03/10 10:10:29;;;;;;;7.90;2.50;;;;;;;;;;5035844;28;20229;-52
2021/03/10 10:12:55;;;;;;;6.82;2.47;;;;;;;;;;5032292;28;20192;-51
2021/03/10 10:15:22;;;;;;;4.68;2.38;;;;;;;;;;5028442;28;20188;-51
2021/03/10 10:17:53;;;;;;;4.25;2.45;;;;;;;;;;5030579;28;20184;-52
2021/03/10 10:20:20;;;;;;;4.25;2.70;;;;;;;;;;5025339;28;20311;-52
2021/03/10 10:22:46;;;;;;;2.78;2.00;;;;;;;;;;5021563;28;20199;-52
2021/03/10 10:25:13;;;;;;;5.13;2.55;;;;;;;;;;5035505;28;20528;-52
2021/03/10 10:27:43;;;;;;;4.25;2.33;;;;;;;;;;5037081;28;20211;-52
2021/03/10 10:30:09;;;;;;;5.20;2.63;;;;;;;;;;5037479;28;20258;-52
2021/03/10 10:32:35;;;;;;;3.13;2.30;;;;;;;;;;5034642;28;20192;-52
2021/03/10 10:35:01;;;;;;;6.32;2.60;;;;;;;;;;5028744;28;20198;-52
2021/03/10 10:37:27;;;;;;;5.63;2.50;;;;;;;;;;5025455;28;20249;-52
2021/03/10 10:39:53;;;;;;;3.38;2.70;;;;;;;;;;5030546;28;20205;-52
2021/03/10 10:42:20;;;;;;;4.35;2.60;;;;;;;;;;5020701;28;20191;-52
2021/03/10 10:44:46;;;;;;;6.07;2.70;;;;;;;;;;5024856;28;20200;-52
2021/03/10 10:47:12;;;;;;;6.72;3.55;;;;;;;;;;5017208;28;20222;-52
2021/03/10 10:49:38;;;;;;;8.43;4.68;;;;;;;;;;5020508;28;20226;-52
2021/03/10 10:52:04;;;;;;;7.32;5.00;;;;;;;;;;5022902;28;20183;-52
2021/03/10 10:54:30;;;;;;;10.15;6.00;;;;;;;;;;5036195;28;20279;-52
2021/03/10 10:56:56;;;;;;;10.30;6.25;;;;;;;;;;5036846;28;20182;-52
2021/03/10 10:59:22;;;;;;;11.50;7.00;;;;;;;;;;5036608;28;20203;-52
2021/03/10 11:01:48;;;;;;;11.73;7.15;;;;;;;;;;5036663;28;20593;-52
2021/03/10 11:04:14;;;;;;;14.35;7.20;;;;;;;;;;5032733;28;20179;-52
2021/03/10 11:06:40;;;;;;;13.45;7.30;;;;;;;;;;5031706;28;20192;-52
2021/03/10 11:09:07;;;;;;;10.63;7.50;;;;;;;;;;5026213;28;20559;-52
2021/03/10 11:11:33;;;;;;;11.90;7.45;;;;;;;;;;5016718;28;20187;-52
2021/03/10 11:13:59;;;;;;;10.38;7.10;;;;;;;;;;5026955;28;20200;-52
2021/03/10 11:16:25;;;;;;;12.70;8.07;;;;;;;;;;5017359;28;20266;-52
2021/03/10 11:18:51;;;;;;;12.15;6.85;;;;;;;;;;5025689;28;20632;-51
2021/03/10 11:21:17;;;;;;;11.77;7.47;;;;;;;;;;5027785;28;20204;-52
2021/03/10 11:23:43;;;;;;;10.65;6.75;;;;;;;;;;5029357;28;20243;-52
2021/03/10 11:26:09;;;;;;;10.57;6.97;;;;;;;;;;5028261;28;20193;-50
2021/03/10 11:28:36;;;;;;;11.15;6.68;;;;;;;;;;5029242;28;20492;-49
2021/03/10 11:31:02;;;;;;;17.42;7.43;;;;;;;;;;5033540;28;20270;-52
2021/03/10 11:33:28;;;;;;;13.50;7.43;;;;;;;;;;5032079;28;20237;-52
2021/03/10 11:35:54;;;;;;;13.13;7.60;;;;;;;;;;5028007;28;20196;-52
2021/03/10 11:38:20;;;;;;;12.80;7.15;;;;;;;;;;5022397;28;20188;-52
2021/03/10 11:40:46;;;;;;;14.00;7.38;;;;;;;;;;5016040;28;20185;-52
2021/03/10 11:43:14;;;;;;;11.35;7.20;;;;;;;;;;5019077;28;20196;-49
2021/03/10 11:45:40;;;;;;;10.73;7.70;;;;;;;;;;5025547;28;20452;-50
2021/03/10 11:48:06;;;;;;;10.32;7.05;;;;;;;;;;5027128;28;20210;-50
2021/03/10 11:50:36;;;;;;;11.88;7.40;;;;;;;;;;5020021;28;20192;-51
2021/03/10 11:53:02;;;;;;;11.82;6.70;;;;;;;;;;5018563;28;20243;-52
2021/03/10 11:55:28;;;;;;;9.23;7.43;;;;;;;;;;5022429;28;20177;-54
2021/03/10 11:57:54;;;;;;;8.13;6.43;;;;;;;;;;5034627;28;20188;-53
2021/03/10 12:00:20;;;;;;;10.85;6.93;;;;;;;;;;5032307;28;20664;-53
2021/03/10 12:02:46;;;;;;;8.13;6.00;;;;;;;;;;5035625;28;20259;-52
2021/03/10 12:05:13;;;;;;;6.93;5.90;;;;;;;;;;5021902;28;20622;-56
2021/03/10 12:07:39;;;;;;;6.75;5.10;;;;;;;;;;5028553;28;20206;-60
2021/03/10 12:10:05;;;;;;;6.80;5.47;;;;;;;;;;5029196;28;20188;-52
2021/03/10 12:12:31;;;;;;;6.50;5.60;;;;;;;;;;5023335;28;20211;-51
2021/03/10 12:14:57;;;;;;;7.32;6.47;;;;;;;;;;5029190;28;20192;-52
2021/03/10 12:17:23;;;;;;;5.80;4.28;;;;;;;;;;5018602;28;20199;-49
2021/03/10 12:19:49;;;;;;;6.07;4.45;;;;;;;;;;5020806;28;20476;-52
2021/03/10 12:22:16;;;;;;;7.78;3.95;;;;;;;;;;5022448;28;20239;-52
2021/03/10 12:24:46;;;;;;;6.05;3.72;;;;;;;;;;5030050;28;20216;-52
2021/03/10 12:27:12;;;;;;;4.93;3.20;;;;;;;;;;5034577;28;20214;-52
2021/03/10 12:29:38;;;;;;;6.10;3.40;;;;;;;;;;5023871;28;20193;-50
2021/03/10 12:32:04;;;;;;;5.68;3.55;;;;;;;;;;5018485;28;20194;-52
2021/03/10 12:34:31;;;;;;;4.47;2.80;;;;;;;;;;5032701;28;20285;-54
2021/03/10 12:36:57;;;;;;;5.43;3.10;;;;;;;;;;5029446;28;20288;-51
2021/03/10 12:39:23;;;;;;;4.72;3.20;;;;;;;;;;5019795;28;20673;-52
2021/03/10 12:41:49;;;;;;;3.88;3.25;;;;;;;;;;5015005;28;20204;-51
2021/03/10 12:44:15;;;;;;;4.13;3.28;;;;;;;;;;5034198;28;20211;-54
2021/03/10 12:46:41;;;;;;;4.88;3.03;;;;;;;;;;5022333;28;20567;-54
2021/03/10 12:49:07;;;;;;;6.85;3.25;;;;;;;;;;5024226;28;20919;-50
2021/03/10 12:51:33;;;;;;;4.05;3.03;;;;;;;;;;5031871;28;20302;-52
2021/03/10 12:53:59;;;;;;;4.75;3.25;;;;;;;;;;5034298;28;20744;-51
2021/03/10 12:56:25;;;;;;;10.25;4.05;;;;;;;;;;5023675;28;20372;-54
2021/03/10 12:58:51;;;;;;;8.43;4.65;;;;;;;;;;5032456;28;20620;-59
2021/03/10 13:01:17;;;;;;;12.45;5.72;;;;;;;;;;5030129;28;20179;-56
2021/03/10 13:03:43;;;;;;;15.93;5.85;;;;;;;;;;5019171;28;20570;-59
2021/03/10 13:06:09;;;;;;;23.88;8.00;;;;;;;;;;5024031;28;20209;-55
2021/03/10 13:08:35;;;;;;;31.50;10.00;;;;;;;;;;5017899;28;20184;-52
2021/03/10 13:11:01;;;;;;;33.22;10.63;;;;;;;;;;5033656;28;20278;-51
2021/03/10 13:13:27;;;;;;;35.67;12.32;;;;;;;;;;5031834;28;20203;-54
2021/03/10 13:15:53;;;;;;;31.30;12.07;;;;;;;;;;5030244;28;20259;-52
2021/03/10 13:18:19;;;;;;;39.92;13.23;;;;;;;;;;5032233;28;20184;-52
2021/03/10 13:20:45;;;;;;;54.47;16.48;;;;;;;;;;5018050;28;20641;-48
2021/03/10 13:23:12;;;;;;;88.75;22.88;;;;;;;;;;5014363;28;20190;-51
2021/03/10 13:25:38;;;;;;;96.75;24.58;;;;;;;;;;5018265;28;20274;-51
2021/03/10 13:28:04;;;;;;;86.85;24.88;;;;;;;;;;5014435;28;20187;-51
2021/03/10 13:30:30;;;;;;;88.72;25.20;;;;;;;;;;5026555;28;20266;-51
2021/03/10 13:32:56;;;;;;;84.65;23.92;;;;;;;;;;5032550;28;20223;-51
2021/03/10 13:35:22;;;;;;;94.95;23.40;;;;;;;;;;5033054;28;20594;-51
2021/03/10 13:37:48;;;;;;;72.97;22.92;;;;;;;;;;5036034;28;20183;-51
2021/03/10 13:40:16;;;;;;;79.38;24.15;;;;;;;;;;5037979;28;20207;-51
2021/03/10 13:42:42;;;;;;;85.82;22.70;;;;;;;;;;5036367;28;20179;-51
2021/03/10 13:45:08;;;;;;;78.10;21.73;;;;;;;;;;5024243;28;20269;-51
2021/03/10 13:47:34;;;;;;;80.00;23.77;;;;;;;;;;5036887;28;20613;-51
2021/03/10 13:50:00;;;;;;;86.18;23.30;;;;;;;;;;5036226;28;20466;-51
2021/03/10 13:52:26;;;;;;;69.22;22.67;;;;;;;;;;5034843;28;20188;-51
2021/03/10 13:54:53;;;;;;;72.80;22.30;;;;;;;;;;5037352;28;20233;-51
2021/03/10 13:57:20;;;;;;;58.05;20.65;;;;;;;;;;5032403;28;20191;-51
2021/03/10 13:59:46;;;;;;;68.82;22.20;;;;;;;;;;5025755;28;20523;-51
2021/03/10 14:02:12;;;;;;;63.15;20.13;;;;;;;;;;5017714;28;20184;-51
2021/03/10 14:04:38;;;;;;;57.78;19.80;;;;;;;;;;5027919;28;20186;-51
2021/03/10 14:07:04;;;;;;;54.42;19.27;;;;;;;;;;5022365;28;20187;-51
2021/03/10 14:09:31;;;;;;;59.17;19.80;;;;;;;;;;5037876;28;20267;-51
2021/03/10 14:11:57;;;;;;;52.03;18.92;;;;;;;;;;5037410;28;20852;-51
2021/03/10 14:14:23;;;;;;;52.03;18.50;;;;;;;;;;5036904;28;20223;-51
2021/03/10 14:16:49;;;;;;;52.22;18.58;;;;;;;;;;5035655;28;20230;-51
2021/03/10 14:19:15;;;;;;;50.33;18.25;;;;;;;;;;5022325;28;20246;-51
2021/03/10 14:21:41;;;;;;;49.88;17.23;;;;;;;;;;5017712;28;20183;-51
2021/03/10 14:24:07;;;;;;;46.47;16.83;;;;;;;;;;5032980;28;20570;-51
2021/03/10 14:26:33;;;;;;;50.15;17.73;;;;;;;;;;5037067;28;20258;-51
2021/03/10 14:28:59;;;;;;;46.75;16.48;;;;;;;;;;5032622;28;20195;-51
2021/03/10 14:31:25;;;;;;;39.10;16.00;;;;;;;;;;5017345;28;20466;-51
2021/03/10 14:33:51;;;;;;;48.25;16.30;;;;;;;;;;5031586;28;20179;-51
2021/03/10 14:36:17;;;;;;;40.63;16.60;;;;;;;;;;5016609;28;20177;-51
2021/03/10 14:38:43;;;;;;;38.85;15.38;;;;;;;;;;5017061;28;20197;-51